createdAt,value
2017-07-24T00:01:42.731Z,68.02
2017-07-24T00:04:11.148Z,68.50
2017-07-24T00:06:39.572Z,68.92
2017-07-24T00:09:08.600Z,69.09
2017-07-24T00:11:36.970Z,69.65
2017-07-24T00:14:05.415Z,70.18
2017-07-24T00:16:34.839Z,69.88
2017-07-24T00:19:03.212Z,69.57
2017-07-24T00:21:31.579Z,69.70
2017-07-24T00:24:00.315Z,69.87
2017-07-24T00:26:28.716Z,69.85
2017-07-24T00:28:57.103Z,69.91
2017-07-24T00:31:26.150Z,69.80
2017-07-24T00:33:54.683Z,70.00
2017-07-24T00:36:23.114Z,70.01
2017-07-24T00:38:52.091Z,69.93
2017-07-24T00:41:21.246Z,69.77
2017-07-24T00:43:49.697Z,69.40
2017-07-24T00:46:18.396Z,69.69
2017-07-24T00:48:46.789Z,69.58
2017-07-24T00:51:15.184Z,70.89
2017-07-24T00:53:44.332Z,70.74
2017-07-24T00:56:12.727Z,71.05
2017-07-24T00:58:41.175Z,71.21
2017-07-24T01:01:10.754Z,71.15
2017-07-24T01:03:39.187Z,72.39
2017-07-24T01:06:07.624Z,72.29
2017-07-24T01:08:36.394Z,72.83
2017-07-24T01:11:04.770Z,72.88
2017-07-24T01:13:33.165Z,72.83
2017-07-24T01:16:02.124Z,73.12
2017-07-24T01:18:30.490Z,73.09
2017-07-24T01:20:58.838Z,72.55
2017-07-24T01:23:27.757Z,73.56
2017-07-24T01:25:56.175Z,73.25
2017-07-24T01:28:24.561Z,73.58
2017-07-24T01:30:53.248Z,73.58
2017-07-24T01:33:21.643Z,74.08
2017-07-24T01:35:50.063Z,74.27
2017-07-24T01:38:19.674Z,73.99
2017-07-24T01:40:48.067Z,74.27
2017-07-24T01:43:16.456Z,73.92
2017-07-24T01:45:45.126Z,74.22
2017-07-24T01:48:13.544Z,74.16
2017-07-24T01:50:41.951Z,74.24
2017-07-24T01:53:11.607Z,75.44
2017-07-24T01:55:39.985Z,74.39
2017-07-24T01:58:08.359Z,73.98
2017-07-24T02:00:37.333Z,73.09
2017-07-24T02:03:05.705Z,72.98
2017-07-24T02:05:34.113Z,72.84
2017-07-24T02:08:02.987Z,72.46
2017-07-24T02:10:31.347Z,72.51
2017-07-24T02:12:59.727Z,72.74
2017-07-24T02:15:28.431Z,72.54
2017-07-24T02:17:56.865Z,72.75
2017-07-24T02:20:25.486Z,73.50
2017-07-24T02:22:54.705Z,74.20
2017-07-24T02:25:23.075Z,73.97
2017-07-24T02:27:51.450Z,73.56
2017-07-24T02:30:20.161Z,73.42
2017-07-24T02:32:48.561Z,73.09
2017-07-24T02:35:16.970Z,72.58
2017-07-24T02:37:45.891Z,72.47
2017-07-24T02:40:14.270Z,72.56
2017-07-24T02:42:42.647Z,72.12
2017-07-24T02:45:11.707Z,72.28
2017-07-24T02:47:40.116Z,73.43
2017-07-24T02:50:08.524Z,73.25
2017-07-24T02:52:37.201Z,72.94
2017-07-24T02:55:05.627Z,73.70
2017-07-24T02:57:33.986Z,75.10
2017-07-24T03:00:02.929Z,75.28
2017-07-24T03:02:32.176Z,75.60
2017-07-24T03:05:00.566Z,75.00
2017-07-24T03:07:29.653Z,74.94
2017-07-24T03:09:58.054Z,74.72
2017-07-24T03:12:26.516Z,74.44
2017-07-24T03:14:55.250Z,74.56
2017-07-24T03:17:24.428Z,74.13
2017-07-24T03:19:52.867Z,73.75
2017-07-24T03:22:21.502Z,74.02
2017-07-24T03:24:49.911Z,73.95
2017-07-24T03:27:18.292Z,75.41
2017-07-24T03:29:47.050Z,75.69
2017-07-24T03:32:15.460Z,75.74
2017-07-24T03:34:43.837Z,75.28
2017-07-24T03:37:12.545Z,74.90
2017-07-24T03:39:40.951Z,74.54
2017-07-24T03:42:09.300Z,74.07
2017-07-24T03:44:38.198Z,74.15
2017-07-24T03:47:06.630Z,73.69
2017-07-24T03:49:35.037Z,73.24
2017-07-24T03:52:04.035Z,73.05
2017-07-24T03:54:32.419Z,73.15
2017-07-24T03:57:00.848Z,73.14
2017-07-24T03:59:29.490Z,73.55
2017-07-24T04:01:57.899Z,73.73
2017-07-24T04:04:26.311Z,73.07
2017-07-24T04:06:55.131Z,72.58
2017-07-24T04:09:23.516Z,72.04
2017-07-24T04:11:51.904Z,72.17
2017-07-24T04:14:20.676Z,72.13
2017-07-24T04:16:49.108Z,71.87
2017-07-24T04:19:17.531Z,71.49
2017-07-24T04:21:46.428Z,70.93
2017-07-24T04:24:14.859Z,70.66
2017-07-24T04:26:43.238Z,70.60
2017-07-24T04:29:11.896Z,70.39
2017-07-24T04:31:40.298Z,70.50
2017-07-24T04:34:08.719Z,71.09
2017-07-24T04:36:37.469Z,70.62
2017-07-24T04:39:05.873Z,71.66
2017-07-24T04:41:35.098Z,70.61
2017-07-24T04:44:03.991Z,70.87
2017-07-24T04:46:32.378Z,70.08
2017-07-24T04:49:00.824Z,68.94
2017-07-24T04:51:30.242Z,68.95
2017-07-24T04:53:58.696Z,68.44
2017-07-24T04:56:27.081Z,67.96
2017-07-24T04:58:56.960Z,67.85
2017-07-24T05:01:25.355Z,68.68
2017-07-24T05:03:53.912Z,67.89
2017-07-24T05:06:22.538Z,67.43
2017-07-24T05:08:50.942Z,66.59
2017-07-24T05:11:19.327Z,65.51
2017-07-24T05:13:48.135Z,66.33
2017-07-24T05:16:16.543Z,66.00
2017-07-24T05:18:44.944Z,66.34
2017-07-24T05:21:13.786Z,67.04
2017-07-24T05:23:42.206Z,67.16
2017-07-24T05:26:10.652Z,67.27
2017-07-24T05:28:39.383Z,68.02
2017-07-24T05:31:07.795Z,67.39
2017-07-24T05:33:36.211Z,66.67
2017-07-24T05:36:04.919Z,68.04
2017-07-24T05:38:33.307Z,66.93
2017-07-24T05:41:02.557Z,65.88
2017-07-24T05:43:31.431Z,65.20
2017-07-24T05:45:59.844Z,65.16
2017-07-24T05:48:28.259Z,65.46
2017-07-24T05:50:57.109Z,65.41
2017-07-24T05:53:25.502Z,64.66
2017-07-24T05:55:53.960Z,63.65
2017-07-24T05:58:22.582Z,63.33
2017-07-24T06:00:50.998Z,61.89
2017-07-24T06:03:19.416Z,61.49
2017-07-24T06:05:48.622Z,61.76
2017-07-24T06:08:17.040Z,61.95
2017-07-24T06:10:45.461Z,61.37
2017-07-24T06:13:14.188Z,59.70
2017-07-24T06:15:42.555Z,59.18
2017-07-24T06:18:10.995Z,58.50
2017-07-24T06:20:39.705Z,57.60
2017-07-24T06:23:08.178Z,56.81
2017-07-24T06:25:36.628Z,56.96
2017-07-24T06:28:05.561Z,56.74
2017-07-24T06:30:34.009Z,56.68
2017-07-24T06:33:02.412Z,56.39
2017-07-24T06:35:31.096Z,56.34
2017-07-24T06:37:59.525Z,56.27
2017-07-24T06:40:27.932Z,55.08
2017-07-24T06:42:56.823Z,53.00
2017-07-24T06:45:25.233Z,53.01
2017-07-24T06:47:53.712Z,53.21
2017-07-24T06:50:22.760Z,53.31
2017-07-24T06:52:51.198Z,53.08
2017-07-24T06:55:19.606Z,51.60
2017-07-24T06:57:48.502Z,51.57
2017-07-24T07:00:16.920Z,51.47
2017-07-24T07:02:45.399Z,50.44
2017-07-24T07:05:14.314Z,50.41
2017-07-24T07:07:42.771Z,49.32
2017-07-24T07:10:11.988Z,48.49
2017-07-24T07:12:40.692Z,48.43
2017-07-24T07:15:09.204Z,48.97
2017-07-24T07:17:37.640Z,47.68
2017-07-24T07:20:06.579Z,47.40
2017-07-24T07:22:35.018Z,49.68
2017-07-24T07:25:03.607Z,49.20
2017-07-24T07:27:32.426Z,50.02
2017-07-24T07:30:00.852Z,49.68
2017-07-24T07:32:29.277Z,49.81
2017-07-24T07:34:58.239Z,48.40
2017-07-24T07:37:26.690Z,47.49
2017-07-24T07:39:55.165Z,46.85
2017-07-24T07:42:23.899Z,46.72
2017-07-24T07:44:52.296Z,47.42
2017-07-24T07:47:20.749Z,46.92
2017-07-24T07:49:49.439Z,43.85
2017-07-24T07:52:17.855Z,45.18
2017-07-24T07:54:46.305Z,45.79
2017-07-24T07:57:15.388Z,45.77
2017-07-24T07:59:43.816Z,43.62
2017-07-24T08:02:12.221Z,45.41
2017-07-24T08:04:40.879Z,46.10
2017-07-24T08:07:09.234Z,46.92
2017-07-24T08:09:37.652Z,44.66
2017-07-24T08:12:06.352Z,43.90
2017-07-24T08:14:34.818Z,42.77
2017-07-24T08:17:03.246Z,40.87
2017-07-24T08:19:32.159Z,42.78
2017-07-24T08:22:00.624Z,45.05
2017-07-24T08:24:29.015Z,42.77
2017-07-24T08:26:57.808Z,42.51
2017-07-24T08:29:26.216Z,43.41
2017-07-24T08:31:54.625Z,44.24
2017-07-24T08:34:24.094Z,43.28
2017-07-24T08:36:52.571Z,44.46
2017-07-24T08:39:21.025Z,44.35
2017-07-24T08:41:50.150Z,44.17
2017-07-24T08:44:18.544Z,43.28
2017-07-24T08:46:46.904Z,41.76
2017-07-24T08:49:15.605Z,40.95
2017-07-24T08:51:44.066Z,38.55
2017-07-24T08:54:12.502Z,38.91
2017-07-24T08:56:41.411Z,38.11
2017-07-24T08:59:09.817Z,38.04
2017-07-24T09:01:38.245Z,38.30
2017-07-24T09:04:08.029Z,39.02
2017-07-24T09:06:36.468Z,38.66
2017-07-24T09:09:04.847Z,37.29
2017-07-24T09:11:33.643Z,35.17
2017-07-24T09:14:02.059Z,33.86
2017-07-24T09:16:30.495Z,33.95
2017-07-24T09:18:59.401Z,32.95
2017-07-24T09:21:27.838Z,32.32
2017-07-24T09:23:56.320Z,33.08
2017-07-24T09:26:25.343Z,32.84
2017-07-24T09:28:53.766Z,32.79
2017-07-24T09:31:22.314Z,34.43
2017-07-24T09:33:51.220Z,33.93
2017-07-24T09:36:19.627Z,32.61
2017-07-24T09:38:48.824Z,31.78
2017-07-24T09:41:17.506Z,33.66
2017-07-24T09:43:45.877Z,33.68
2017-07-24T09:46:14.258Z,34.87
2017-07-24T09:48:43.021Z,36.01
2017-07-24T09:51:11.430Z,33.91
2017-07-24T09:53:39.883Z,32.94
2017-07-24T09:56:08.694Z,34.34
2017-07-24T09:58:37.079Z,33.92
2017-07-24T10:01:05.434Z,34.36
2017-07-24T10:03:34.142Z,35.03
2017-07-24T10:06:02.528Z,34.80
2017-07-24T10:08:30.929Z,34.57
2017-07-24T10:11:00.089Z,35.15
2017-07-24T10:13:28.445Z,33.46
2017-07-24T10:15:56.856Z,33.84
2017-07-24T10:18:25.567Z,33.66
2017-07-24T10:20:54.019Z,34.01
2017-07-24T10:23:22.431Z,33.07
2017-07-24T10:25:52.013Z,33.77
2017-07-24T10:28:20.399Z,34.30
2017-07-24T10:30:48.819Z,34.03
2017-07-24T10:33:17.748Z,35.52
2017-07-24T10:35:46.133Z,36.09
2017-07-24T10:38:14.555Z,36.30
2017-07-24T10:40:43.222Z,36.31
2017-07-24T10:43:11.655Z,36.57
2017-07-24T10:45:40.037Z,36.46
2017-07-24T10:48:08.859Z,38.07
2017-07-24T10:50:37.362Z,36.77
2017-07-24T10:53:05.796Z,36.66
2017-07-24T10:55:34.686Z,36.96
2017-07-24T10:58:03.090Z,35.90
2017-07-24T11:00:31.509Z,37.20
2017-07-24T11:03:00.304Z,36.71
2017-07-24T11:05:28.697Z,36.64
2017-07-24T11:07:57.996Z,36.42
2017-07-24T11:10:26.798Z,35.80
2017-07-24T11:12:55.282Z,35.73
2017-07-24T11:15:23.680Z,36.11
2017-07-24T11:17:52.528Z,35.38
2017-07-24T11:20:20.984Z,35.52
2017-07-24T11:22:49.395Z,35.64
2017-07-24T11:25:18.121Z,35.49
2017-07-24T11:27:46.583Z,35.28
2017-07-24T11:30:15.031Z,35.33
2017-07-24T11:32:43.738Z,36.86
2017-07-24T11:35:12.151Z,37.28
2017-07-24T11:37:40.627Z,38.71
2017-07-24T11:40:09.555Z,41.01
2017-07-24T11:42:38.013Z,44.30
2017-07-24T11:45:06.438Z,45.72
2017-07-24T11:47:36.000Z,45.52
2017-07-24T11:50:04.396Z,46.69
2017-07-24T11:52:32.758Z,47.34
2017-07-24T11:55:01.444Z,48.11
2017-07-24T11:57:29.790Z,48.63
2017-07-24T11:59:58.148Z,49.32
2017-07-24T12:02:27.005Z,49.15
2017-07-24T12:04:55.397Z,50.69
2017-07-24T12:07:23.738Z,49.79
2017-07-24T12:09:52.639Z,49.97
2017-07-24T12:12:20.967Z,48.68
2017-07-24T12:14:49.317Z,48.51
2017-07-24T12:17:17.934Z,48.06
2017-07-24T12:19:46.295Z,48.54
2017-07-24T12:22:14.691Z,48.24
2017-07-24T12:24:43.742Z,48.36
2017-07-24T12:27:12.122Z,47.50
2017-07-24T12:29:40.508Z,46.83
2017-07-24T12:32:09.176Z,46.85
2017-07-24T12:34:37.520Z,47.13
2017-07-24T12:37:06.717Z,48.06
2017-07-24T12:39:35.434Z,48.29
2017-07-24T12:42:04.329Z,47.72
2017-07-24T12:44:32.663Z,48.33
2017-07-24T12:47:01.747Z,47.84
2017-07-24T12:49:30.143Z,47.58
2017-07-24T12:51:58.517Z,47.19
2017-07-24T12:54:27.201Z,46.40
2017-07-24T12:56:55.620Z,45.65
2017-07-24T12:59:24.007Z,46.33
2017-07-24T13:01:52.698Z,45.25
2017-07-24T13:04:21.124Z,45.62
2017-07-24T13:06:50.304Z,44.68
2017-07-24T13:09:19.267Z,44.19
2017-07-24T13:11:47.640Z,44.59
2017-07-24T13:14:16.058Z,43.83
2017-07-24T13:16:44.798Z,43.18
2017-07-24T13:19:13.236Z,44.41
2017-07-24T13:21:41.633Z,45.06
2017-07-24T13:24:10.350Z,44.25
2017-07-24T13:26:38.716Z,45.00
2017-07-24T13:29:07.066Z,45.50
2017-07-24T13:31:35.947Z,45.60
2017-07-24T13:34:04.360Z,44.96
2017-07-24T13:36:33.587Z,45.53
2017-07-24T13:39:02.254Z,46.39
2017-07-24T13:41:30.664Z,46.30
2017-07-24T13:43:59.308Z,46.50
2017-07-24T13:46:28.857Z,47.37
2017-07-24T13:48:57.305Z,47.92
2017-07-24T13:51:25.770Z,48.57
2017-07-24T13:53:54.591Z,47.86
2017-07-24T13:56:22.952Z,49.34
2017-07-24T13:58:52.066Z,51.13
2017-07-24T14:01:20.858Z,53.00
2017-07-24T14:03:49.222Z,52.53
2017-07-24T14:06:17.571Z,53.42
2017-07-24T14:08:46.349Z,54.49
2017-07-24T14:11:14.702Z,54.82
2017-07-24T14:13:43.084Z,53.82
2017-07-24T14:16:11.943Z,54.38
2017-07-24T14:18:40.292Z,54.20
2017-07-24T14:21:08.638Z,54.89
2017-07-24T14:23:37.297Z,54.69
2017-07-24T14:26:05.684Z,56.22
2017-07-24T14:28:34.152Z,55.75
2017-07-24T14:31:02.791Z,56.58
2017-07-24T14:33:31.139Z,55.81
2017-07-24T14:35:59.470Z,55.16
2017-07-24T14:38:29.118Z,52.35
2017-07-24T14:40:57.458Z,54.11
2017-07-24T14:43:26.574Z,53.23
2017-07-24T14:45:55.369Z,54.28
2017-07-24T14:48:23.715Z,55.34
2017-07-24T14:50:52.068Z,57.26
2017-07-24T14:53:20.958Z,56.65
2017-07-24T14:55:49.322Z,56.81
2017-07-24T14:58:17.673Z,55.75
2017-07-24T15:00:46.558Z,55.36
2017-07-24T15:03:14.897Z,54.51
2017-07-24T15:05:43.235Z,55.20
2017-07-24T15:08:11.993Z,55.42
2017-07-24T15:10:41.125Z,55.47
2017-07-24T15:13:09.534Z,56.77
2017-07-24T15:15:38.195Z,56.28
2017-07-24T15:18:06.550Z,57.81
2017-07-24T15:20:34.900Z,58.49
2017-07-24T15:23:03.774Z,58.17
2017-07-24T15:25:32.151Z,58.14
2017-07-24T15:28:00.485Z,58.29
2017-07-24T15:30:29.152Z,58.27
2017-07-24T15:32:57.501Z,59.31
2017-07-24T15:35:25.836Z,58.22
2017-07-24T15:37:54.719Z,58.46
2017-07-24T15:40:23.066Z,59.18
2017-07-24T15:42:52.177Z,58.49
2017-07-24T15:45:22.414Z,58.29
2017-07-24T15:47:50.810Z,58.98
2017-07-24T15:50:19.201Z,59.00
2017-07-24T15:52:47.910Z,59.84
2017-07-24T15:55:16.304Z,59.30
2017-07-24T15:57:46.495Z,58.76
2017-07-24T16:00:15.446Z,58.52
2017-07-24T16:02:43.859Z,58.26
2017-07-24T16:05:12.297Z,58.34
2017-07-24T16:07:41.252Z,59.28
2017-07-24T16:10:09.644Z,58.62
2017-07-24T16:12:38.016Z,59.45
2017-07-24T16:15:06.685Z,59.93
2017-07-24T16:17:35.080Z,60.20
2017-07-24T16:20:03.446Z,60.39
2017-07-24T16:22:32.118Z,60.40
2017-07-24T16:25:00.484Z,60.92
2017-07-24T16:27:28.852Z,60.97
2017-07-24T16:29:57.966Z,61.35
2017-07-24T16:32:26.325Z,61.32
2017-07-24T16:34:54.918Z,61.44
2017-07-24T16:37:23.600Z,61.41
2017-07-24T16:39:51.957Z,61.98
2017-07-24T16:42:21.140Z,62.26
2017-07-24T16:44:49.828Z,62.55
2017-07-24T16:47:18.233Z,61.94
2017-07-24T16:49:46.579Z,62.05
2017-07-24T16:54:42.965Z,63.38
2017-07-24T16:57:11.345Z,63.75
2017-07-24T16:59:40.148Z,64.19
2017-07-24T17:02:08.536Z,65.28
2017-07-24T17:04:36.892Z,64.86
2017-07-24T17:07:05.575Z,65.63
2017-07-24T17:09:33.938Z,65.92
2017-07-24T17:12:03.062Z,65.73
2017-07-24T17:14:31.881Z,65.76
2017-07-24T17:17:00.243Z,66.09
2017-07-24T17:19:28.618Z,66.07
2017-07-24T17:21:57.306Z,66.14
2017-07-24T17:24:25.683Z,66.90
2017-07-24T17:26:54.108Z,66.74
2017-07-24T17:29:22.964Z,66.76
2017-07-24T17:31:51.325Z,66.95
2017-07-24T17:34:19.658Z,67.06
2017-07-24T17:36:48.613Z,67.07
2017-07-24T17:39:16.959Z,65.93
2017-07-24T17:41:46.078Z,66.15
2017-07-24T17:44:14.868Z,66.58
2017-07-24T17:46:43.271Z,66.95
2017-07-24T17:49:11.642Z,66.69
2017-07-24T17:51:40.327Z,66.55
2017-07-24T17:54:08.700Z,67.05
2017-07-24T17:56:37.055Z,67.42
2017-07-24T17:59:06.007Z,68.53
2017-07-24T18:01:34.379Z,68.57
2017-07-24T18:04:02.717Z,68.10
2017-07-24T18:06:31.611Z,68.27
2017-07-24T18:08:59.991Z,68.93
2017-07-24T18:11:28.369Z,69.57
2017-07-24T18:13:57.275Z,68.62
2017-07-24T18:16:25.636Z,68.26
2017-07-24T18:18:54.006Z,68.01
2017-07-24T18:21:22.901Z,66.63
2017-07-24T18:23:51.254Z,67.82
2017-07-24T18:26:19.615Z,66.46
2017-07-24T18:28:48.381Z,67.51
2017-07-24T18:31:16.771Z,67.33
2017-07-24T18:33:45.188Z,67.87
2017-07-24T18:36:14.640Z,68.21
2017-07-24T18:38:43.050Z,68.61
2017-07-24T18:41:11.413Z,68.87
2017-07-24T18:43:40.427Z,69.97
2017-07-24T18:46:08.795Z,70.24
2017-07-24T18:48:37.141Z,70.41
2017-07-24T18:51:05.949Z,70.40
2017-07-24T18:53:34.300Z,70.75
2017-07-24T18:56:02.665Z,70.46
2017-07-24T18:58:31.323Z,70.12
2017-07-24T19:00:59.695Z,70.95
2017-07-24T19:03:28.072Z,70.81
2017-07-24T19:05:57.107Z,70.93
2017-07-24T19:08:25.481Z,71.23
2017-07-24T19:10:53.834Z,71.46
2017-07-24T19:13:22.691Z,71.67
2017-07-24T19:15:51.062Z,71.26
2017-07-24T19:18:19.420Z,71.36
2017-07-24T19:20:48.311Z,71.16
2017-07-24T19:23:16.673Z,71.54
2017-07-24T19:25:45.032Z,71.20
2017-07-24T19:28:14.036Z,72.46
2017-07-24T19:30:43.166Z,73.31
2017-07-24T19:33:11.567Z,72.89
2017-07-24T19:35:40.323Z,73.37
2017-07-24T19:38:08.674Z,72.61
2017-07-24T19:40:37.062Z,72.08
2017-07-24T19:43:06.520Z,73.32
2017-07-24T19:45:34.896Z,73.16
2017-07-24T19:48:03.277Z,73.42
2017-07-24T19:50:32.982Z,73.32
2017-07-24T19:53:01.331Z,73.67
2017-07-24T19:55:29.699Z,73.50
2017-07-24T19:57:58.376Z,73.32
2017-07-24T20:00:26.726Z,73.84
2017-07-24T20:02:55.058Z,73.50
2017-07-24T20:05:23.731Z,73.82
2017-07-24T20:07:52.855Z,73.70
2017-07-24T20:10:21.217Z,73.84
2017-07-24T20:12:50.145Z,72.68
2017-07-24T20:15:18.503Z,73.34
2017-07-24T20:17:46.846Z,73.18
2017-07-24T20:20:15.486Z,73.01
2017-07-24T20:22:43.838Z,73.44
2017-07-24T20:25:12.195Z,73.95
2017-07-24T20:27:41.051Z,73.35
2017-07-24T20:30:09.424Z,73.52
2017-07-24T20:32:37.780Z,72.50
2017-07-24T20:35:06.635Z,73.34
2017-07-24T20:37:35.000Z,73.35
2017-07-24T20:40:03.377Z,72.86
2017-07-24T20:42:32.162Z,73.58
2017-07-24T20:45:00.533Z,73.31
2017-07-24T20:47:28.889Z,73.33
2017-07-24T20:49:57.797Z,73.62
2017-07-24T20:52:26.170Z,73.65
2017-07-24T20:54:54.553Z,73.97
2017-07-24T20:57:23.250Z,74.48
2017-07-24T20:59:51.617Z,74.12
2017-07-24T21:02:19.993Z,74.10
2017-07-24T21:04:48.628Z,74.01
2017-07-24T21:07:16.986Z,74.23
2017-07-24T21:09:45.339Z,73.98
2017-07-24T21:12:14.098Z,74.11
2017-07-24T21:14:42.482Z,74.51
2017-07-24T21:17:10.856Z,73.73
2017-07-24T21:19:39.853Z,74.45
2017-07-24T21:22:08.198Z,72.59
2017-07-24T21:24:36.559Z,72.65
2017-07-24T21:27:05.520Z,72.50
2017-07-24T21:29:34.003Z,73.42
2017-07-24T21:32:02.391Z,73.32
2017-07-24T21:34:31.146Z,73.47
2017-07-24T21:36:59.529Z,73.58
2017-07-24T21:39:27.910Z,73.88
2017-07-24T21:41:56.828Z,73.80
2017-07-24T21:44:25.401Z,73.92
2017-07-24T21:46:53.754Z,73.32
2017-07-24T21:49:22.552Z,73.26
2017-07-24T21:51:50.925Z,73.32
2017-07-24T21:54:19.274Z,73.07
2017-07-24T21:56:48.190Z,73.31
2017-07-24T21:59:16.547Z,73.55
2017-07-24T22:01:44.895Z,73.63
2017-07-24T22:04:13.746Z,73.63
2017-07-24T22:06:42.091Z,72.97
2017-07-24T22:09:10.447Z,72.39
2017-07-24T22:11:39.278Z,72.25
2017-07-24T22:14:07.640Z,72.91
2017-07-24T22:16:35.983Z,72.52
2017-07-24T22:19:04.738Z,72.50
2017-07-24T22:21:33.092Z,72.15
2017-07-24T22:24:01.443Z,72.26
2017-07-24T22:26:30.268Z,71.87
2017-07-24T22:28:59.393Z,73.30
2017-07-24T22:31:27.730Z,72.84
2017-07-24T22:33:56.274Z,72.88
2017-07-24T22:36:24.621Z,72.62
2017-07-24T22:38:52.981Z,72.88
2017-07-24T22:41:21.513Z,73.34
2017-07-24T22:43:49.847Z,72.05
2017-07-24T22:46:18.197Z,72.08
2017-07-24T22:48:47.121Z,72.46
2017-07-24T22:51:15.477Z,73.26
2017-07-24T22:53:43.815Z,74.04
2017-07-24T22:56:12.330Z,73.99
2017-07-24T22:58:40.700Z,73.64
2017-07-24T23:01:09.055Z,73.36
2017-07-24T23:03:37.581Z,73.83
2017-07-24T23:06:05.943Z,74.65
2017-07-24T23:08:34.334Z,74.54
2017-07-24T23:11:03.245Z,74.39
2017-07-24T23:13:31.611Z,74.76
2017-07-24T23:15:59.956Z,74.53
2017-07-24T23:18:28.705Z,74.88
2017-07-24T23:20:57.044Z,74.93
2017-07-24T23:23:25.383Z,74.71
2017-07-24T23:25:53.912Z,74.84
2017-07-24T23:28:22.266Z,74.43
2017-07-24T23:30:50.632Z,74.01
2017-07-24T23:33:19.404Z,74.31
2017-07-24T23:35:47.772Z,74.57
2017-07-24T23:38:16.119Z,74.43
2017-07-24T23:40:44.774Z,74.80
2017-07-24T23:43:13.106Z,74.24
2017-07-24T23:45:41.453Z,73.96
2017-07-24T23:48:10.020Z,73.64
2017-07-24T23:50:38.379Z,73.22
2017-07-24T23:53:06.725Z,73.52
2017-07-24T23:55:35.723Z,73.65
2017-07-24T23:58:04.077Z,74.17
